Time;durP1;ratioP1;P1;durP2;ratioP2;P2;SDS_P1;SDS_P2;PMS_P1;PMS_P2;Temp;Humidity;BMP_temperature;BMP_pressure;BME280_temperature;BME280_humidity;BME280_pressure;Samples;Min_cycle;Max_cycle;Signal;HPM_P1;HPM_P2
2021/04/07 00:01:48;;;;;;;;;;;;;;;;;;5044321;28;19924;-66
2021/04/07 00:04:15;;;;;;;;;;;;;;;;;;5046887;28;19994;-66
2021/04/07 00:06:41;;;;;;;;;;;;;;;;;;5046644;28;19950;-66
2021/04/07 00:09:08;;;;;;;;;;;;;;;;;;5047064;28;20032;-66
2021/04/07 00:11:34;;;;;;;;;;;;;;;;;;5049439;28;19925;-66
2021/04/07 00:14:01;;;;;;;;;;;;;;;;;;5046583;28;20024;-65
2021/04/07 00:16:27;;;;;;;;;;;;;;;;;;5041049;28;19929;-66
2021/04/07 00:18:54;;;;;;;;;;;;;;;;;;5035383;28;19924;-66
2021/04/07 00:21:20;;;;;;;;;;;;;;;;;;5041965;28;19932;-66
2021/04/07 00:23:46;;;;;;;;;;;;;;;;;;5041333;28;19925;-66
2021/04/07 00:26:13;;;;;;;;;;;;;;;;;;5044657;28;19925;-65
2021/04/07 00:28:39;;;;;;;;;;;;;;;;;;5043906;28;19976;-66
2021/04/07 00:31:06;;;;;;;;;;;;;;;;;;5048060;28;19925;-65
2021/04/07 00:33:33;;;;;;;;;;;;;;;;;;5046050;28;19925;-66
2021/04/07 00:35:59;;;;;;;;;;;;;;;;;;5048132;28;19976;-65
2021/04/07 00:38:25;;;;;;;;;;;;;;;;;;5047421;28;19947;-66
2021/04/07 00:40:52;;;;;;;;;;;;;;;;;;5041763;28;19924;-66
2021/04/07 00:43:18;;;;;;;;;;;;;;;;;;5050809;28;20262;-65
2021/04/07 00:45:45;;;;;;;;;;;;;;;;;;5046149;28;19970;-65
2021/04/07 00:48:11;;;;;;;;;;;;;;;;;;5052915;28;19933;-66
2021/04/07 00:50:38;;;;;;;;;;;;;;;;;;5052176;28;19946;-66
2021/04/07 00:53:04;;;;;;;;;;;;;;;;;;5048437;28;19933;-67
2021/04/07 00:55:31;;;;;;;;;;;;;;;;;;5052364;28;20015;-65
2021/04/07 00:57:57;;;;;;;;;;;;;;;;;;5053446;28;19931;-66
2021/04/07 01:00:24;;;;;;;;;;;;;;;;;;5040932;28;19925;-66
2021/04/07 01:02:50;;;;;;;;;;;;;;;;;;5046885;28;20358;-66
2021/04/07 01:05:17;;;;;;;;;;;;;;;;;;5047135;28;19925;-66
2021/04/07 01:07:43;;;;;;;;;;;;;;;;;;5050672;28;20392;-66
2021/04/07 01:10:10;;;;;;;;;;;;;;;;;;5052757;28;19925;-66
2021/04/07 01:12:36;;;;;;;;;;;;;;;;;;5052044;28;20316;-66
2021/04/07 01:15:03;;;;;;;;;;;;;;;;;;5051338;28;19968;-66
2021/04/07 01:17:29;;;;;;;;;;;;;;;;;;5051358;28;19931;-66
2021/04/07 01:19:56;;;;;;;;;;;;;;;;;;5049468;28;20318;-66
2021/04/07 01:22:22;;;;;;;;;;;;;;;;;;5050807;28;19924;-65
2021/04/07 01:24:49;;;;;;;;;;;;;;;;;;5050171;28;19928;-65
2021/04/07 01:27:15;;;;;;;;;;;;;;;;;;5051208;28;19924;-65
2021/04/07 01:29:42;;;;;;;;;;;;;;;;;;5050123;28;19925;-65
2021/04/07 01:32:08;;;;;;;;;;;;;;;;;;5052543;28;19968;-65
2021/04/07 01:34:35;;;;;;;;;;;;;;;;;;5047625;28;19925;-65
2021/04/07 01:37:01;;;;;;;;;;;;;;;;;;5046802;28;19925;-66
2021/04/07 01:39:28;;;;;;;;;;;;;;;;;;5048206;28;19924;-65
2021/04/07 01:41:54;;;;;;;;;;;;;;;;;;5052579;28;19924;-66
2021/04/07 01:44:21;;;;;;;;;;;;;;;;;;5047881;28;19943;-65
2021/04/07 01:46:47;;;;;;;;;;;;;;;;;;5051649;28;19931;-65
2021/04/07 01:49:14;;;;;;;;;;;;;;;;;;5048106;28;19928;-64
2021/04/07 01:51:40;;;;;;;;;;;;;;;;;;5046920;28;19933;-64
2021/04/07 01:54:07;;;;;;;;;;;;;;;;;;5051034;28;19925;-64
2021/04/07 01:56:33;;;;;;;;;;;;;;;;;;5050289;28;20003;-64
2021/04/07 01:59:00;;;;;;;;;;;;;;;;;;5043972;28;19929;-64
2021/04/07 02:01:26;;;;;;;;;;;;;;;;;;5047412;28;19931;-64
2021/04/07 02:03:53;;;;;;;;;;;;;;;;;;5058594;28;19924;-64
2021/04/07 02:06:19;;;;;;;;;;;;;;;;;;5052904;28;19924;-64
2021/04/07 02:08:46;;;;;;;;;;;;;;;;;;5053444;28;20379;-64
2021/04/07 02:11:12;;;;;;;;;;;;;;;;;;5050976;28;19924;-65
2021/04/07 02:13:39;;;;;;;;;;;;;;;;;;5052249;28;20377;-65
2021/04/07 02:16:05;;;;;;;;;;;;;;;;;;5046534;28;20316;-65
2021/04/07 02:18:32;;;;;;;;;;;;;;;;;;5041103;28;20192;-64
2021/04/07 02:20:58;;;;;;;;;;;;;;;;;;5045566;28;20301;-65
2021/04/07 02:23:25;;;;;;;;;;;;;;;;;;5050081;28;19929;-64
2021/04/07 02:25:51;;;;;;;;;;;;;;;;;;5041234;28;20286;-64
2021/04/07 02:28:18;;;;;;;;;;;;;;;;;;5048036;28;19951;-65
2021/04/07 02:30:44;;;;;;;;;;;;;;;;;;5044565;28;19932;-65
2021/04/07 02:33:11;;;;;;;;;;;;;;;;;;5042585;28;19929;-65
2021/04/07 02:35:37;;;;;;;;;;;;;;;;;;5048417;28;19924;-65
2021/04/07 02:38:04;;;;;;;;;;;;;;;;;;5050833;28;20415;-65
2021/04/07 02:40:30;;;;;;;;;;;;;;;;;;5044254;28;19974;-65
2021/04/07 02:42:57;;;;;;;;;;;;;;;;;;5049628;28;20325;-65
2021/04/07 02:45:23;;;;;;;;;;;;;;;;;;5051658;28;19929;-64
2021/04/07 02:47:50;;;;;;;;;;;;;;;;;;5050286;28;19976;-64
2021/04/07 02:50:16;;;;;;;;;;;;;;;;;;5043681;28;19932;-65
2021/04/07 02:52:43;;;;;;;;;;;;;;;;;;5043343;28;19929;-64
2021/04/07 02:55:09;;;;;;;;;;;;;;;;;;5048067;28;19928;-64
2021/04/07 02:57:36;;;;;;;;;;;;;;;;;;5047185;28;20411;-64
2021/04/07 03:00:02;;;;;;;;;;;;;;;;;;5042929;28;19933;-64
2021/04/07 03:02:29;;;;;;;;;;;;;;;;;;5050662;28;20266;-65
2021/04/07 03:04:55;;;;;;;;;;;;;;;;;;5048665;28;20115;-65
2021/04/07 03:07:22;;;;;;;;;;;;;;;;;;5049934;28;20000;-65
2021/04/07 03:09:48;;;;;;;;;;;;;;;;;;5043746;28;19929;-65
2021/04/07 03:12:15;;;;;;;;;;;;;;;;;;5049520;28;20012;-65
2021/04/07 03:14:41;;;;;;;;;;;;;;;;;;5047841;28;19924;-65
2021/04/07 03:17:08;;;;;;;;;;;;;;;;;;5047877;28;19925;-65
2021/04/07 03:19:34;;;;;;;;;;;;;;;;;;5044208;28;19932;-65
2021/04/07 03:22:01;;;;;;;;;;;;;;;;;;5049315;28;19929;-65
2021/04/07 03:24:27;;;;;;;;;;;;;;;;;;5047126;28;20104;-66
2021/04/07 03:26:54;;;;;;;;;;;;;;;;;;5044137;28;19924;-65
2021/04/07 03:29:20;;;;;;;;;;;;;;;;;;5043311;28;19929;-65
2021/04/07 03:31:47;;;;;;;;;;;;;;;;;;5039272;28;19932;-65
2021/04/07 03:34:13;;;;;;;;;;;;;;;;;;5050907;28;19925;-65
2021/04/07 03:36:40;;;;;;;;;;;;;;;;;;5046967;28;19932;-65
2021/04/07 03:39:06;;;;;;;;;;;;;;;;;;5045436;28;19974;-66
2021/04/07 03:41:33;;;;;;;;;;;;;;;;;;5042838;28;19929;-65
2021/04/07 03:43:59;;;;;;;;;;;;;;;;;;5045356;28;19933;-65
2021/04/07 03:46:25;;;;;;;;;;;;;;;;;;5042868;28;19931;-66
2021/04/07 03:48:52;;;;;;;;;;;;;;;;;;5043283;28;19947;-65
2021/04/07 03:51:18;;;;;;;;;;;;;;;;;;5041907;28;19939;-65
2021/04/07 03:53:46;;;;;;;;;;;;;;;;;;5042266;28;19947;-65
2021/04/07 03:56:13;;;;;;;;;;;;;;;;;;5042545;28;19925;-65
2021/04/07 03:58:39;;;;;;;;;;;;;;;;;;5048392;28;20071;-64
2021/04/07 04:01:06;;;;;;;;;;;;;;;;;;5047153;28;20454;-65
2021/04/07 04:03:32;;;;;;;;;;;;;;;;;;5053744;28;19936;-65
2021/04/07 04:05:59;;;;;;;;;;;;;;;;;;5051088;28;19935;-65
2021/04/07 04:08:25;;;;;;;;;;;;;;;;;;5050180;28;19925;-66
2021/04/07 04:10:52;;;;;;;;;;;;;;;;;;5081981;22;20345;-66
2021/04/07 04:13:18;;;;;;;;;;;;;;;;;;5081378;28;19925;-62
2021/04/07 04:15:45;;;;;;;;;;;;;;;;;;5081601;28;19967;-63
2021/04/07 04:18:12;;;;;;;;;;;;;;;;;;5087420;28;19924;-62
2021/04/07 04:20:38;;;;;;;;;;;;;;;;;;5078918;28;19939;-64
2021/04/07 04:23:09;;;;;;;;;;;;;;;;;;5071974;28;20346;-63
2021/04/07 04:25:35;;;;;;;;;;;;;;;;;;5072222;28;19935;-63
2021/04/07 04:28:03;;;;;;;;;;;;;;;;;;5073197;28;19924;-64
2021/04/07 04:30:31;;;;;;;;;;;;;;;;;;5066090;28;19932;-63
2021/04/07 04:32:57;;;;;;;;;;;;;;;;;;5067852;28;20019;-63
2021/04/07 04:35:24;;;;;;;;;;;;;;;;;;5068399;28;19995;-60
2021/04/07 04:37:50;;;;;;;;;;;;;;;;;;5071852;28;20299;-64
2021/04/07 04:40:17;;;;;;;;;;;;;;;;;;5073896;28;19930;-64
2021/04/07 04:42:43;;;;;;;;;;;;;;;;;;5073327;28;19928;-63
2021/04/07 04:45:10;;;;;;;;;;;;;;;;;;5074510;28;20311;-63
2021/04/07 04:47:36;;;;;;;;;;;;;;;;;;5073236;28;20315;-63
2021/04/07 04:50:03;;;;;;;;;;;;;;;;;;5072704;28;19931;-63
2021/04/07 04:52:29;;;;;;;;;;;;;;;;;;5073909;28;19931;-63
2021/04/07 04:54:56;;;;;;;;;;;;;;;;;;5070103;28;19925;-63
2021/04/07 04:57:22;;;;;;;;;;;;;;;;;;5072843;28;19928;-63
2021/04/07 04:59:49;;;;;;;;;;;;;;;;;;5073464;28;19924;-61
2021/04/07 05:02:15;;;;;;;;;;;;;;;;;;5073860;28;19935;-62
2021/04/07 05:04:42;;;;;;;;;;;;;;;;;;5073557;28;19943;-66
2021/04/07 05:07:08;;;;;;;;;;;;;;;;;;5067244;28;19971;-62
2021/04/07 05:09:35;;;;;;;;;;;;;;;;;;5071258;28;20019;-62
2021/04/07 05:12:01;;;;;;;;;;;;;;;;;;5073363;28;19931;-65
2021/04/07 05:14:30;;;;;;;;;;;;;;;;;;5072302;28;19925;-63
2021/04/07 05:17:06;;;;;;;;;;;;;;;;;;5072434;28;19980;-61
2021/04/07 05:19:32;;;;;;;;;;;;;;;;;;5070170;28;20448;-63
2021/04/07 05:21:59;;;;;;;;;;;;;;;;;;5068530;28;19939;-64
2021/04/07 05:24:25;;;;;;;;;;;;;;;;;;5073219;28;19982;-63
2021/04/07 05:26:52;;;;;;;;;;;;;;;;;;5071453;28;20024;-64
2021/04/07 05:29:18;;;;;;;;;;;;;;;;;;5072359;28;19935;-64
2021/04/07 05:31:45;;;;;;;;;;;;;;;;;;5071863;28;19979;-64
2021/04/07 05:34:12;;;;;;;;;;;;;;;;;;5073672;28;20164;-63
2021/04/07 05:36:38;;;;;;;;;;;;;;;;;;5072324;28;20006;-64
2021/04/07 05:39:05;;;;;;;;;;;;;;;;;;5070271;28;19975;-63
2021/04/07 05:41:33;;;;;;;;;;;;;;;;;;5073966;28;20494;-63
2021/04/07 05:44:00;;;;;;;;;;;;;;;;;;5073634;28;19978;-63
2021/04/07 05:46:29;;;;;;;;;;;;;;;;;;5073461;28;20003;-63
2021/04/07 05:48:55;;;;;;;;;;;;;;;;;;5069529;28;19928;-62
2021/04/07 05:51:22;;;;;;;;;;;;;;;;;;5071155;28;20392;-61
2021/04/07 05:53:48;;;;;;;;;;;;;;;;;;5069393;28;19977;-63
2021/04/07 05:56:15;;;;;;;;;;;;;;;;;;5071409;28;20437;-62
2021/04/07 05:58:41;;;;;;;;;;;;;;;;;;5070230;28;19932;-63
2021/04/07 06:01:08;;;;;;;;;;;;;;;;;;5071919;28;20497;-63
2021/04/07 06:03:34;;;;;;;;;;;;;;;;;;5070217;28;19924;-59
2021/04/07 06:06:01;;;;;;;;;;;;;;;;;;5071180;28;19968;-62
2021/04/07 06:08:27;;;;;;;;;;;;;;;;;;5066242;28;19925;-62
2021/04/07 06:10:54;;;;;;;;;;;;;;;;;;5063790;28;20008;-65
2021/04/07 06:13:20;;;;;;;;;;;;;;;;;;5072051;28;19924;-63
2021/04/07 06:15:47;;;;;;;;;;;;;;;;;;5071023;28;19924;-63
2021/04/07 06:18:14;;;;;;;;;;;;;;;;;;5064868;28;20383;-64
2021/04/07 06:20:40;;;;;;;;;;;;;;;;;;5064861;28;19925;-62
2021/04/07 06:23:07;;;;;;;;;;;;;;;;;;5071415;28;19925;-62
2021/04/07 06:25:33;;;;;;;;;;;;;;;;;;5070462;28;19938;-65
2021/04/07 06:28:00;;;;;;;;;;;;;;;;;;5070882;28;20332;-63
2021/04/07 06:30:41;;;;;;;;;;;;;;;;;;5066174;28;19960;-63
2021/04/07 06:33:07;;;;;;;;;;;;;;;;;;5067928;28;20372;-63
2021/04/07 06:35:34;;;;;;;;;;;;;;;;;;5067384;28;19925;-63
2021/04/07 06:38:00;;;;;;;;;;;;;;;;;;5070720;28;20023;-64
2021/04/07 06:40:27;;;;;;;;;;;;;;;;;;5067288;28;19931;-64
2021/04/07 06:42:53;;;;;;;;;;;;;;;;;;5070884;28;20022;-64
2021/04/07 06:45:20;;;;;;;;;;;;;;;;;;5069981;28;20011;-62
2021/04/07 06:47:46;;;;;;;;;;;;;;;;;;5066815;28;19925;-63
2021/04/07 06:50:13;;;;;;;;;;;;;;;;;;5070156;28;20019;-64
2021/04/07 06:52:39;;;;;;;;;;;;;;;;;;5066663;28;19930;-64
2021/04/07 06:55:06;;;;;;;;;;;;;;;;;;5064325;28;19924;-64
2021/04/07 06:57:32;;;;;;;;;;;;;;;;;;5068126;28;19955;-63
2021/04/07 06:59:59;;;;;;;;;;;;;;;;;;5068945;28;19978;-64
2021/04/07 07:02:25;;;;;;;;;;;;;;;;;;5068025;28;20019;-64
2021/04/07 07:04:52;;;;;;;;;;;;;;;;;;5052364;28;19925;-63
2021/04/07 07:07:18;;;;;;;;;;;;;;;;;;5054803;28;19925;-64
2021/04/07 07:09:45;;;;;;;;;;;;;;;;;;5072338;28;19981;-63
2021/04/07 07:12:11;;;;;;;;;;;;;;;;;;5058567;28;19931;-63
2021/04/07 07:14:38;;;;;;;;;;;;;;;;;;5068789;28;19931;-62
2021/04/07 07:17:04;;;;;;;;;;;;;;;;;;5055355;28;19951;-63
2021/04/07 07:19:31;;;;;;;;;;;;;;;;;;5072061;28;20016;-64
2021/04/07 07:21:58;;;;;;;;;;;;;;;;;;5057953;28;20391;-64
2021/04/07 07:24:24;;;;;;;;;;;;;;;;;;5069000;28;19928;-66
2021/04/07 07:26:51;;;;;;;;;;;;;;;;;;5071188;28;20020;-65
2021/04/07 07:29:17;;;;;;;;;;;;;;;;;;5071680;28;20011;-63
2021/04/07 07:31:44;;;;;;;;;;;;;;;;;;5071114;28;20193;-63
2021/04/07 07:34:10;;;;;;;;;;;;;;;;;;5071937;28;19931;-64
2021/04/07 07:36:39;;;;;;;;;;;;;;;;;;5057332;28;19933;-63
2021/04/07 07:39:05;;;;;;;;;;;;;;;;;;5052592;28;19964;-64
2021/04/07 07:41:34;;;;;;;;;;;;;;;;;;5070680;28;19967;-64
2021/04/07 07:44:01;;;;;;;;;;;;;;;;;;5065187;28;19924;-63
2021/04/07 07:46:28;;;;;;;;;;;;;;;;;;5063597;28;19924;-65
2021/04/07 07:48:54;;;;;;;;;;;;;;;;;;5062867;28;20057;-63
2021/04/07 07:51:21;;;;;;;;;;;;;;;;;;5065852;28;20392;-64
2021/04/07 07:53:48;;;;;;;;;;;;;;;;;;5072893;28;20023;-64
2021/04/07 07:56:15;;;;;;;;;;;;;;;;;;5059930;28;20073;-64
2021/04/07 07:58:41;;;;;;;;;;;;;;;;;;5065178;28;19963;-65
2021/04/07 08:01:10;;;;;;;;;;;;;;;;;;5069892;28;19932;-65
2021/04/07 08:03:36;;;;;;;;;;;;;;;;;;5070214;28;19982;-66
2021/04/07 08:06:03;;;;;;;;;;;;;;;;;;5064503;28;19924;-64
2021/04/07 08:08:29;;;;;;;;;;;;;;;;;;5065281;28;19933;-65
2021/04/07 08:10:56;;;;;;;;;;;;;;;;;;5069966;28;20007;-64
2021/04/07 08:13:22;;;;;;;;;;;;;;;;;;5067262;28;20003;-66
2021/04/07 08:15:49;;;;;;;;;;;;;;;;;;5070161;28;19957;-65
2021/04/07 08:18:15;;;;;;;;;;;;;;;;;;5068646;28;19928;-66
2021/04/07 08:20:44;;;;;;;;;;;;;;;;;;5069515;28;20192;-66
2021/04/07 08:23:10;;;;;;;;;;;;;;;;;;5069771;28;20369;-64
2021/04/07 08:25:37;;;;;;;;;;;;;;;;;;5071143;28;19951;-65
2021/04/07 08:28:03;;;;;;;;;;;;;;;;;;5069864;28;19929;-66
2021/04/07 08:30:30;;;;;;;;;;;;;;;;;;5070565;28;19971;-66
2021/04/07 08:32:56;;;;;;;;;;;;;;;;;;5069539;28;20403;-66
2021/04/07 08:35:26;;;;;;;;;;;;;;;;;;5070837;28;19935;-66
2021/04/07 08:37:52;;;;;;;;;;;;;;;;;;5066736;28;20025;-66
2021/04/07 08:40:19;;;;;;;;;;;;;;;;;;5063518;28;20320;-66
2021/04/07 08:42:45;;;;;;;;;;;;;;;;;;5070517;28;19924;-66
2021/04/07 08:45:12;;;;;;;;;;;;;;;;;;5069171;28;19939;-66
2021/04/07 08:47:44;;;;;;;;;;;;;;;;;;5059474;28;19929;-65
2021/04/07 08:50:11;;;;;;;;;;;;;;;;;;5059802;28;19932;-65
2021/04/07 08:52:38;;;;;;;;;;;;;;;;;;5066779;28;19978;-65
2021/04/07 08:55:04;;;;;;;;;;;;;;;;;;5065222;28;20401;-66
2021/04/07 08:57:31;;;;;;;;;;;;;;;;;;5063477;28;19924;-66
2021/04/07 08:59:58;;;;;;;;;;;;;;;;;;5070344;28;20368;-66
2021/04/07 09:02:24;;;;;;;;;;;;;;;;;;5070767;28;19935;-66
2021/04/07 09:04:51;;;;;;;;;;;;;;;;;;5063970;28;19931;-67
2021/04/07 09:07:17;;;;;;;;;;;;;;;;;;5065619;28;19929;-66
2021/04/07 09:09:44;;;;;;;;;;;;;;;;;;5070849;28;19972;-66
2021/04/07 09:12:10;;;;;;;;;;;;;;;;;;5072516;28;19983;-67
2021/04/07 09:14:38;;;;;;;;;;;;;;;;;;5068425;28;20391;-67
2021/04/07 09:17:04;;;;;;;;;;;;;;;;;;5073527;28;19933;-67
2021/04/07 09:19:31;;;;;;;;;;;;;;;;;;5070680;28;19925;-66
2021/04/07 09:21:58;;;;;;;;;;;;;;;;;;5069997;28;20367;-67
2021/04/07 09:24:26;;;;;;;;;;;;;;;;;;5068001;28;19979;-67
2021/04/07 09:26:53;;;;;;;;;;;;;;;;;;5067273;28;19929;-66
2021/04/07 09:29:19;;;;;;;;;;;;;;;;;;5070444;28;20397;-70
2021/04/07 09:31:46;;;;;;;;;;;;;;;;;;5064273;28;19978;-67
2021/04/07 09:34:12;;;;;;;;;;;;;;;;;;5075114;28;19924;-66
2021/04/07 09:36:40;;;;;;;;;;;;;;;;;;5068282;28;19926;-65
2021/04/07 09:39:06;;;;;;;;;;;;;;;;;;5067654;28;19978;-66
2021/04/07 09:41:34;;;;;;;;;;;;;;;;;;5067854;28;20023;-65
2021/04/07 09:44:00;;;;;;;;;;;;;;;;;;5068071;28;19925;-64
2021/04/07 09:46:27;;;;;;;;;;;;;;;;;;5073134;28;19925;-65
2021/04/07 09:48:53;;;;;;;;;;;;;;;;;;5064402;28;19947;-66
2021/04/07 09:51:20;;;;;;;;;;;;;;;;;;5073413;28;19924;-66
2021/04/07 09:53:46;;;;;;;;;;;;;;;;;;5068631;28;20015;-66
2021/04/07 09:56:13;;;;;;;;;;;;;;;;;;5056542;28;19954;-66
2021/04/07 09:58:39;;;;;;;;;;;;;;;;;;5066653;28;20384;-66
2021/04/07 10:01:06;;;;;;;;;;;;;;;;;;5056904;28;20018;-65
2021/04/07 10:03:33;;;;;;;;;;;;;;;;;;5069406;28;20285;-65
2021/04/07 10:05:59;;;;;;;;;;;;;;;;;;5068864;28;20036;-66
2021/04/07 10:08:26;;;;;;;;;;;;;;;;;;5064374;28;19978;-66
2021/04/07 10:10:53;;;;;;;;;;;;;;;;;;5078110;22;19928;-67
2021/04/07 10:13:20;;;;;;;;;;;;;;;;;;5088260;28;19924;-67
2021/04/07 10:15:46;;;;;;;;;;;;;;;;;;5084479;28;19990;-66
2021/04/07 10:18:13;;;;;;;;;;;;;;;;;;5088504;28;20077;-66
2021/04/07 10:20:39;;;;;;;;;;;;;;;;;;5083891;28;19960;-65
2021/04/07 10:23:06;;;;;;;;;;;;;;;;;;5081468;28;20011;-65
2021/04/07 10:25:32;;;;;;;;;;;;;;;;;;5078030;28;20011;-66
2021/04/07 10:27:59;;;;;;;;;;;;;;;;;;5082102;28;19975;-66
2021/04/07 10:30:26;;;;;;;;;;;;;;;;;;5075367;28;20019;-67
2021/04/07 10:32:53;;;;;;;;;;;;;;;;;;5072870;28;19924;-66
2021/04/07 10:35:19;;;;;;;;;;;;;;;;;;5076926;28;20039;-66
2021/04/07 10:37:46;;;;;;;;;;;;;;;;;;5078046;28;19924;-65
2021/04/07 10:40:12;;;;;;;;;;;;;;;;;;5081026;28;20019;-65
2021/04/07 10:42:39;;;;;;;;;;;;;;;;;;5074681;28;19944;-66
2021/04/07 10:45:05;;;;;;;;;;;;;;;;;;5078335;28;19931;-67
2021/04/07 10:47:32;;;;;;;;;;;;;;;;;;5073103;28;20315;-66
2021/04/07 10:49:58;;;;;;;;;;;;;;;;;;5078994;28;19934;-66
2021/04/07 10:52:25;;;;;;;;;;;;;;;;;;5076197;28;19931;-66
2021/04/07 10:54:51;;;;;;;;;;;;;;;;;;5075343;28;20408;-66
2021/04/07 10:57:18;;;;;;;;;;;;;;;;;;5070956;28;19968;-66
2021/04/07 10:59:44;;;;;;;;;;;;;;;;;;5078915;28;19928;-66
2021/04/07 11:02:10;;;;;;;;;;;;;;;;;;5080371;28;19954;-65
2021/04/07 11:04:37;;;;;;;;;;;;;;;;;;5075319;28;20403;-64
2021/04/07 11:07:04;;;;;;;;;;;;;;;;;;5079076;28;20321;-65
2021/04/07 11:09:32;;;;;;;;;;;;;;;;;;5078953;28;19924;-65
2021/04/07 11:11:59;;;;;;;;;;;;;;;;;;5073791;28;20379;-66
2021/04/07 11:14:26;;;;;;;;;;;;;;;;;;5076920;28;20092;-66
2021/04/07 11:16:52;;;;;;;;;;;;;;;;;;5071195;28;19931;-65
2021/04/07 11:19:19;;;;;;;;;;;;;;;;;;5071299;28;20354;-65
2021/04/07 11:21:45;;;;;;;;;;;;;;;;;;5073304;28;19925;-66
2021/04/07 11:24:12;;;;;;;;;;;;;;;;;;5076480;28;20414;-66
2021/04/07 11:26:38;;;;;;;;;;;;;;;;;;5073927;28;20199;-66
2021/04/07 11:29:05;;;;;;;;;;;;;;;;;;5074725;28;19924;-67
2021/04/07 11:31:33;;;;;;;;;;;;;;;;;;5076382;28;19929;-66
2021/04/07 11:34:02;;;;;;;;;;;;;;;;;;5078317;28;19925;-68
2021/04/07 11:36:43;;;;;;;;;;;;;;;;;;5072230;28;19967;-66
2021/04/07 11:39:15;;;;;;;;;;;;;;;;;;5075841;28;19932;-65
2021/04/07 11:44:31;;;;;;;;;;;;;;;;;;5066357;28;19932;-67
2021/04/07 11:46:58;;;;;;;;;;;;;;;;;;5074843;28;19925;-65
2021/04/07 11:49:24;;;;;;;;;;;;;;;;;;5081647;28;20342;-66
2021/04/07 11:51:51;;;;;;;;;;;;;;;;;;5081154;28;19968;-68
2021/04/07 11:54:17;;;;;;;;;;;;;;;;;;5071160;28;19928;-66
2021/04/07 11:56:47;;;;;;;;;;;;;;;;;;5071701;28;19928;-66
2021/04/07 11:59:13;;;;;;;;;;;;;;;;;;5073612;28;20013;-66
2021/04/07 12:01:40;;;;;;;;;;;;;;;;;;5077880;28;20004;-65
2021/04/07 12:04:06;;;;;;;;;;;;;;;;;;5075107;28;19947;-66
2021/04/07 12:06:33;;;;;;;;;;;;;;;;;;5077060;28;20431;-65
2021/04/07 12:08:59;;;;;;;;;;;;;;;;;;5078777;28;20377;-67
2021/04/07 12:11:26;;;;;;;;;;;;;;;;;;5076598;28;20631;-66
2021/04/07 12:13:52;;;;;;;;;;;;;;;;;;5079141;28;19924;-68
2021/04/07 12:16:19;;;;;;;;;;;;;;;;;;5081730;28;19924;-65
2021/04/07 12:18:45;;;;;;;;;;;;;;;;;;5073035;28;19924;-65
2021/04/07 12:21:12;;;;;;;;;;;;;;;;;;5079179;28;19928;-65
2021/04/07 12:23:38;;;;;;;;;;;;;;;;;;5076008;28;20383;-65
2021/04/07 12:26:05;;;;;;;;;;;;;;;;;;5076286;28;19931;-66
2021/04/07 12:28:31;;;;;;;;;;;;;;;;;;5081146;28;19973;-66
2021/04/07 12:30:58;;;;;;;;;;;;;;;;;;5081527;28;19963;-65
2021/04/07 12:33:26;;;;;;;;;;;;;;;;;;5077681;28;20003;-66
2021/04/07 12:35:53;;;;;;;;;;;;;;;;;;5081752;28;20167;-66
2021/04/07 12:38:20;;;;;;;;;;;;;;;;;;5078676;28;20355;-66
2021/04/07 12:40:50;;;;;;;;;;;;;;;;;;5079405;28;20372;-67
2021/04/07 12:43:16;;;;;;;;;;;;;;;;;;5081909;28;20394;-67
2021/04/07 12:45:43;;;;;;;;;;;;;;;;;;5086939;28;19924;-67
2021/04/07 12:48:09;;;;;;;;;;;;;;;;;;5092215;28;20355;-67
2021/04/07 12:50:36;;;;;;;;;;;;;;;;;;5083127;28;19924;-66
2021/04/07 12:53:03;;;;;;;;;;;;;;;;;;5084895;28;20012;-66
2021/04/07 12:55:44;;;;;;;;;;;;;;;;;;5080056;28;19924;-67
2021/04/07 12:58:11;;;;;;;;;;;;;;;;;;5085605;28;19924;-67
2021/04/07 13:00:37;;;;;;;;;;;;;;;;;;5076977;28;19939;-66
2021/04/07 13:03:04;;;;;;;;;;;;;;;;;;5076169;28;19930;-68
2021/04/07 13:05:30;;;;;;;;;;;;;;;;;;5080699;28;19925;-65
2021/04/07 13:07:57;;;;;;;;;;;;;;;;;;5083174;28;20364;-68
2021/04/07 13:10:23;;;;;;;;;;;;;;;;;;5079969;28;19931;-65
2021/04/07 13:12:50;;;;;;;;;;;;;;;;;;5084671;28;20017;-68
2021/04/07 13:15:16;;;;;;;;;;;;;;;;;;5077989;28;19984;-65
2021/04/07 13:17:43;;;;;;;;;;;;;;;;;;5077901;28;19954;-66
2021/04/07 13:20:11;;;;;;;;;;;;;;;;;;5083108;28;19946;-65
2021/04/07 13:22:37;;;;;;;;;;;;;;;;;;5082457;28;19930;-65
2021/04/07 13:25:04;;;;;;;;;;;;;;;;;;5085243;28;19986;-66
2021/04/07 13:27:33;;;;;;;;;;;;;;;;;;5084042;28;19939;-66
2021/04/07 13:30:00;;;;;;;;;;;;;;;;;;5086707;28;19924;-66
2021/04/07 13:32:27;;;;;;;;;;;;;;;;;;5087715;28;20027;-66
2021/04/07 13:35:00;;;;;;;;;;;;;;;;;;5084884;28;19986;-68
2021/04/07 13:37:35;;;;;;;;;;;;;;;;;;5077806;28;19924;-67
2021/04/07 13:40:05;;;;;;;;;;;;;;;;;;5078289;28;19928;-67
2021/04/07 13:45:22;;;;;;;;;;;;;;;;;;5062889;28;19924;-67
2021/04/07 13:47:49;;;;;;;;;;;;;;;;;;5077884;28;20043;-68
2021/04/07 13:50:15;;;;;;;;;;;;;;;;;;5077112;28;19972;-66
2021/04/07 13:52:42;;;;;;;;;;;;;;;;;;5080651;28;20314;-66
2021/04/07 13:55:08;;;;;;;;;;;;;;;;;;5076437;28;19925;-66
2021/04/07 13:57:35;;;;;;;;;;;;;;;;;;5081033;28;19931;-67
2021/04/07 14:00:02;;;;;;;;;;;;;;;;;;5079126;28;20303;-67
2021/04/07 14:02:32;;;;;;;;;;;;;;;;;;5082620;28;20321;-66
2021/04/07 14:04:58;;;;;;;;;;;;;;;;;;5083725;28;20299;-67
2021/04/07 14:07:25;;;;;;;;;;;;;;;;;;5077753;28;19924;-65
2021/04/07 14:09:51;;;;;;;;;;;;;;;;;;5074567;28;20015;-65
2021/04/07 14:12:25;;;;;;;;;;;;;;;;;;5082402;28;19931;-63
2021/04/07 14:14:51;;;;;;;;;;;;;;;;;;5075613;28;19997;-64
2021/04/07 14:17:17;;;;;;;;;;;;;;;;;;5076567;28;20030;-64
2021/04/07 14:19:44;;;;;;;;;;;;;;;;;;5079079;28;19925;-65
2021/04/07 14:22:11;;;;;;;;;;;;;;;;;;5075141;28;19934;-67
2021/04/07 14:24:37;;;;;;;;;;;;;;;;;;5079056;28;19936;-65
2021/04/07 14:27:04;;;;;;;;;;;;;;;;;;5073632;28;19925;-64
2021/04/07 14:29:31;;;;;;;;;;;;;;;;;;5074150;28;19924;-65
2021/04/07 14:31:57;;;;;;;;;;;;;;;;;;5075316;28;19954;-67
2021/04/07 14:34:24;;;;;;;;;;;;;;;;;;5073073;28;19931;-66
2021/04/07 14:36:50;;;;;;;;;;;;;;;;;;5071905;28;19932;-65
2021/04/07 14:39:17;;;;;;;;;;;;;;;;;;5081380;28;19939;-65
2021/04/07 14:41:43;;;;;;;;;;;;;;;;;;5081444;28;19971;-65
2021/04/07 14:44:11;;;;;;;;;;;;;;;;;;5074802;28;20339;-66
2021/04/07 14:46:38;;;;;;;;;;;;;;;;;;5075266;28;19987;-64
2021/04/07 14:49:04;;;;;;;;;;;;;;;;;;5079904;28;19924;-66
2021/04/07 14:51:32;;;;;;;;;;;;;;;;;;5083135;28;20403;-66
2021/04/07 14:54:01;;;;;;;;;;;;;;;;;;5075309;28;20427;-67
2021/04/07 14:56:28;;;;;;;;;;;;;;;;;;5078321;28;19924;-66
2021/04/07 14:58:55;;;;;;;;;;;;;;;;;;5078363;28;20349;-66
2021/04/07 15:01:21;;;;;;;;;;;;;;;;;;5073491;28;20002;-67
2021/04/07 15:03:48;;;;;;;;;;;;;;;;;;5076479;28;19931;-66
2021/04/07 15:06:15;;;;;;;;;;;;;;;;;;5079013;28;20210;-65
2021/04/07 15:08:42;;;;;;;;;;;;;;;;;;5074113;28;19982;-66
2021/04/07 15:11:09;;;;;;;;;;;;;;;;;;5073801;28;20343;-66
2021/04/07 15:13:35;;;;;;;;;;;;;;;;;;5075978;28;20023;-65
2021/04/07 15:16:02;;;;;;;;;;;;;;;;;;5077641;28;19963;-65
2021/04/07 15:18:28;;;;;;;;;;;;;;;;;;5072535;28;20020;-66
2021/04/07 15:20:55;;;;;;;;;;;;;;;;;;5070012;28;20011;-65
2021/04/07 15:23:21;;;;;;;;;;;;;;;;;;5073424;28;20340;-66
2021/04/07 15:26:02;;;;;;;;;;;;;;;;;;5073478;28;19924;-65
2021/04/07 15:28:34;;;;;;;;;;;;;;;;;;5079733;28;19924;-66
2021/04/07 15:31:00;;;;;;;;;;;;;;;;;;5072296;28;19967;-65
2021/04/07 15:33:27;;;;;;;;;;;;;;;;;;5077430;28;19986;-65
2021/04/07 15:35:53;;;;;;;;;;;;;;;;;;5078226;28;20027;-65
2021/04/07 15:38:20;;;;;;;;;;;;;;;;;;5076568;28;20382;-65
2021/04/07 15:40:46;;;;;;;;;;;;;;;;;;5077024;28;19928;-65
2021/04/07 15:43:13;;;;;;;;;;;;;;;;;;5081847;28;19928;-69
2021/04/07 15:45:47;;;;;;;;;;;;;;;;;;5074043;28;20380;-66
2021/04/07 15:48:13;;;;;;;;;;;;;;;;;;5070113;28;19925;-67
2021/04/07 15:50:40;;;;;;;;;;;;;;;;;;5076962;28;19974;-65
2021/04/07 15:53:06;;;;;;;;;;;;;;;;;;5074675;28;20307;-67
2021/04/07 15:55:33;;;;;;;;;;;;;;;;;;5070485;28;20341;-64
2021/04/07 15:57:59;;;;;;;;;;;;;;;;;;5072231;28;19946;-65
2021/04/07 16:00:26;;;;;;;;;;;;;;;;;;5078279;28;19928;-65
2021/04/07 16:02:52;;;;;;;;;;;;;;;;;;5078397;28;19962;-65
2021/04/07 16:05:19;;;;;;;;;;;;;;;;;;5078129;28;19924;-66
2021/04/07 16:07:45;;;;;;;;;;;;;;;;;;5078365;28;20330;-65
2021/04/07 16:10:12;;;;;;;;;;;;;;;;;;5081032;28;19969;-65
2021/04/07 16:12:38;;;;;;;;;;;;;;;;;;5082829;28;19924;-66
2021/04/07 16:15:05;;;;;;;;;;;;;;;;;;5088988;28;19924;-64
2021/04/07 16:17:31;;;;;;;;;;;;;;;;;;5078411;28;19979;-65
2021/04/07 16:19:58;;;;;;;;;;;;;;;;;;5078696;28;19931;-64
2021/04/07 16:22:24;;;;;;;;;;;;;;;;;;5076602;28;20222;-65
2021/04/07 16:24:51;;;;;;;;;;;;;;;;;;5083399;28;19938;-65
2021/04/07 16:27:17;;;;;;;;;;;;;;;;;;5083823;28;19924;-66
2021/04/07 16:29:44;;;;;;;;;;;;;;;;;;5077589;28;19924;-67
2021/04/07 16:32:12;;;;;;;;;;;;;;;;;;5082490;28;19936;-65
2021/04/07 16:34:38;;;;;;;;;;;;;;;;;;5083251;28;20007;-65
2021/04/07 16:37:05;;;;;;;;;;;;;;;;;;5077307;28;19925;-65
2021/04/07 16:39:31;;;;;;;;;;;;;;;;;;5075912;28;19935;-65
2021/04/07 16:41:58;;;;;;;;;;;;;;;;;;5082606;28;20049;-67
2021/04/07 16:44:24;;;;;;;;;;;;;;;;;;5080644;28;19969;-67
2021/04/07 16:46:51;;;;;;;;;;;;;;;;;;5075655;28;19970;-65
2021/04/07 16:49:19;;;;;;;;;;;;;;;;;;5073806;28;19928;-66